createdAt,value
2023-05-17T00:00:58.430Z,12.6
2023-05-17T00:06:19.253Z,12.6
2023-05-17T00:17:03.313Z,12.4
2023-05-17T00:22:24.968Z,12.4
2023-05-17T00:28:18.338Z,12.3
2023-05-17T00:33:55.414Z,12.2
2023-05-17T00:45:24.973Z,12.1
2023-05-17T00:51:02.025Z,11.9
2023-05-17T00:56:22.922Z,11.9
2023-05-17T01:02:17.231Z,11.8
2023-05-17T01:08:10.152Z,11.7
2023-05-17T01:13:45.607Z,11.6
2023-05-17T01:19:24.301Z,11.6
2023-05-17T01:25:16.149Z,11.4
2023-05-17T01:31:07.469Z,11.4
2023-05-17T01:36:14.878Z,11.4
2023-05-17T01:42:07.423Z,11.3
2023-05-17T01:47:58.427Z,11.2
2023-05-17T01:53:51.606Z,11.1
2023-05-17T01:59:12.922Z,11
2023-05-17T02:04:49.740Z,10.9
2023-05-17T02:10:28.072Z,10.8
2023-05-17T02:15:33.904Z,10.7
2023-05-17T02:20:55.630Z,10.6
2023-05-17T02:26:33.548Z,10.5
2023-05-17T02:32:09.815Z,10.4
2023-05-17T02:37:46.643Z,10.3
2023-05-17T02:43:24.185Z,10.2
2023-05-17T02:49:00.919Z,10.1
2023-05-17T02:54:37.470Z,10
2023-05-17T03:00:16.038Z,9.9
2023-05-17T03:05:53.868Z,9.8
2023-05-17T03:11:29.548Z,9.7
2023-05-17T03:17:07.564Z,9.6
2023-05-17T03:23:01.029Z,9.6
2023-05-17T03:28:37.184Z,9.5
2023-05-17T03:34:00.735Z,9.4
2023-05-17T03:39:21.816Z,9.4
2023-05-17T03:44:41.736Z,9.4
2023-05-17T03:55:12.294Z,9.4
2023-05-17T04:00:48.464Z,9.4
2023-05-17T04:06:29.073Z,9.4
2023-05-17T04:12:05.112Z,9.4
2023-05-17T04:17:41.269Z,9.5
2023-05-17T04:23:19.840Z,9.6
2023-05-17T04:28:55.281Z,9.8
2023-05-17T04:34:32.551Z,10
2023-05-17T04:40:10.463Z,10.3
2023-05-17T04:45:46.628Z,10.5
2023-05-17T04:51:23.622Z,10.9
2023-05-17T04:57:01.836Z,11.5
2023-05-17T05:02:38.232Z,12.3
2023-05-17T05:08:14.534Z,13
2023-05-17T05:13:52.205Z,13.9
2023-05-17T05:19:31.984Z,14.7
2023-05-17T05:24:52.755Z,15.7
2023-05-17T05:30:32.777Z,17.1
2023-05-17T05:36:25.516Z,19
2023-05-17T05:42:19.092Z,15.9
2023-05-17T05:47:56.757Z,24.6
2023-05-17T05:54:04.554Z,24.1
2023-05-17T05:59:40.107Z,24.6
2023-05-17T06:05:14.376Z,25.2
2023-05-17T06:16:11.450Z,26.3
2023-05-17T06:21:50.651Z,26.5
2023-05-17T06:27:12.074Z,27.3
2023-05-17T06:32:48.197Z,27.9
2023-05-17T06:38:39.986Z,28.4
2023-05-17T06:44:15.931Z,28.9
2023-05-17T06:49:53.844Z,29.6
2023-05-17T06:55:32.863Z,30.3
2023-05-17T07:00:53.804Z,31.1
2023-05-17T07:06:17.404Z,31.7
2023-05-17T07:11:54.959Z,32.6
2023-05-17T07:17:18.533Z,33.4
2023-05-17T07:22:39.926Z,34.2
2023-05-17T07:28:04.239Z,34.9
2023-05-17T07:33:24.893Z,35.6
2023-05-17T07:38:46.805Z,36.2
2023-05-17T07:44:09.937Z,36.2
2023-05-17T07:49:35.149Z,36.6
2023-05-17T07:54:54.880Z,37
2023-05-17T08:00:18.385Z,37.5
2023-05-17T08:05:54.885Z,38
2023-05-17T08:11:00.610Z,38.6
2023-05-17T08:16:51.022Z,39.1
2023-05-17T08:22:28.875Z,39.9
2023-05-17T08:27:50.121Z,40.3
2023-05-17T08:33:37.797Z,40.6
2023-05-17T08:38:44.176Z,40.9
2023-05-17T08:44:22.073Z,41.3
2023-05-17T08:49:46.966Z,41.6
2023-05-17T08:55:09.374Z,41.7
2023-05-17T09:00:42.593Z,42.1
2023-05-17T09:06:22.922Z,42.4
2023-05-17T09:11:46.248Z,42.6
2023-05-17T09:17:22.105Z,42.6
2023-05-17T09:23:00.657Z,42.6
2023-05-17T09:28:47.715Z,42.7
2023-05-17T09:34:26.180Z,42.7
2023-05-17T09:39:48.161Z,42.8
2023-05-17T09:45:24.997Z,43.1
2023-05-17T09:50:45.628Z,43.8
2023-05-17T09:56:23.096Z,44
2023-05-17T10:01:59.479Z,44.1
2023-05-17T10:07:55.297Z,43.9
2023-05-17T10:13:18.189Z,43.6
2023-05-17T10:18:40.404Z,43.4
2023-05-17T10:24:16.514Z,43.1
2023-05-17T10:29:22.030Z,42.9
2023-05-17T10:34:13.504Z,42.6
2023-05-17T10:39:54.404Z,42.3
2023-05-17T10:45:21.418Z,41.9
2023-05-17T10:51:10.874Z,41.7
2023-05-17T10:56:31.505Z,41.4
2023-05-17T11:02:07.293Z,41.2
2023-05-17T11:07:22.517Z,41
2023-05-17T11:12:41.979Z,40.9
2023-05-17T11:18:04.255Z,40.8
2023-05-17T11:23:39.471Z,40.8
2023-05-17T11:28:52.978Z,40.7
2023-05-17T11:34:45.161Z,40.8
2023-05-17T11:40:34.194Z,40.8
2023-05-17T11:46:31.445Z,40.9
2023-05-17T11:52:37.317Z,41
2023-05-17T11:58:10.105Z,40.9
2023-05-17T12:03:45.224Z,40.7
2023-05-17T12:09:22.466Z,40.4
2023-05-17T12:15:16.221Z,40.3
2023-05-17T12:20:53.935Z,40.2
2023-05-17T12:26:46.341Z,40.1
2023-05-17T12:32:38.945Z,40.3
2023-05-17T12:38:17.122Z,40.4
2023-05-17T12:44:22.715Z,40.2
2023-05-17T12:50:01.155Z,40.1
2023-05-17T12:55:36.486Z,40
2023-05-17T13:01:29.502Z,39.9
2023-05-17T13:07:07.066Z,39.8
2023-05-17T13:12:58.237Z,40
2023-05-17T13:18:51.822Z,40.1
2023-05-17T13:24:43.643Z,39.8
2023-05-17T13:30:16.810Z,39.3
2023-05-17T13:35:54.673Z,38.9
2023-05-17T13:41:30.800Z,38.6
2023-05-17T13:47:06.005Z,38.3
2023-05-17T13:52:13.229Z,37.2
2023-05-17T13:57:49.346Z,28.1
2023-05-17T14:03:11.189Z,26.7
2023-05-17T14:08:51.360Z,26.1
2023-05-17T14:14:27.241Z,26
2023-05-17T14:19:48.505Z,25.9
2023-05-17T14:25:25.372Z,25.8
2023-05-17T14:30:45.892Z,25.8
2023-05-17T14:36:06.894Z,25.7
2023-05-17T14:41:34.899Z,25.6
2023-05-17T14:46:56.078Z,25.4
2023-05-17T14:52:16.859Z,25.4
2023-05-17T14:57:24.084Z,25.2
2023-05-17T15:02:52.684Z,25.1
2023-05-17T15:08:14.347Z,24.9
2023-05-17T15:13:35.663Z,24.8
2023-05-17T15:18:57.795Z,24.6
2023-05-17T15:24:51.567Z,24.1
2023-05-17T15:30:29.985Z,23.4
2023-05-17T15:36:06.274Z,22.6
2023-05-17T15:41:57.387Z,21.8
2023-05-17T15:53:02.694Z,20.5
2023-05-17T15:58:53.936Z,19.8
2023-05-17T16:04:31.271Z,19.3
2023-05-17T16:10:07.367Z,18.8
2023-05-17T16:15:42.559Z,18.3
2023-05-17T16:21:36.070Z,17.9
2023-05-17T16:27:26.776Z,17.4
2023-05-17T16:33:17.410Z,17.1
2023-05-17T16:39:09.878Z,16.8
2023-05-17T16:45:00.776Z,16.4
2023-05-17T16:50:52.427Z,16.1
2023-05-17T16:56:44.544Z,15.9
2023-05-17T17:02:36.630Z,15.6
2023-05-17T17:08:28.333Z,15.3
2023-05-17T17:14:37.730Z,15
2023-05-17T17:20:14.182Z,14.8
2023-05-17T17:26:09.109Z,14.5
2023-05-17T17:32:01.538Z,14.3
2023-05-17T17:37:37.423Z,14.1
2023-05-17T17:43:12.896Z,13.9
2023-05-17T17:49:05.589Z,13.7
2023-05-17T17:54:25.738Z,13.6
2023-05-17T18:00:04.407Z,13.4
2023-05-17T18:05:57.575Z,13.3
2023-05-17T18:11:47.998Z,13.1
2023-05-17T18:17:23.798Z,13
2023-05-17T18:23:01.387Z,12.9
2023-05-17T18:28:49.768Z,12.8
2023-05-17T18:34:13.606Z,12.7
2023-05-17T18:39:35.126Z,12.7
2023-05-17T18:45:13.435Z,12.5
2023-05-17T18:50:48.956Z,12.4
2023-05-17T18:56:25.802Z,12.4
2023-05-17T19:01:31.175Z,12.3
2023-05-17T19:06:52.106Z,12.3
2023-05-17T19:12:29.879Z,12.2
2023-05-17T19:18:07.028Z,12.1
2023-05-17T19:23:43.962Z,12.1
2023-05-17T19:29:37.095Z,12
2023-05-17T19:35:01.447Z,12
2023-05-17T19:40:21.682Z,11.9
2023-05-17T19:45:59.640Z,11.9
2023-05-17T19:51:22.109Z,11.9
2023-05-17T19:57:30.462Z,11.8
2023-05-17T20:03:08.241Z,11.8
2023-05-17T20:08:45.419Z,11.7
2023-05-17T20:14:37.026Z,11.7
2023-05-17T20:20:15.042Z,11.7
2023-05-17T20:25:37.023Z,11.6
2023-05-17T20:31:14.012Z,11.6
2023-05-17T20:37:07.137Z,11.6
2023-05-17T20:43:02.142Z,11.6
2023-05-17T20:48:53.446Z,11.5
2023-05-17T20:54:57.532Z,11.5
2023-05-17T21:00:33.806Z,11.5
2023-05-17T21:06:25.466Z,11.4
2023-05-17T21:12:01.925Z,11.4
2023-05-17T21:17:52.436Z,11.4
2023-05-17T21:23:00.297Z,11.4
2023-05-17T21:28:39.609Z,11.4
2023-05-17T21:34:31.623Z,11.4
2023-05-17T21:40:23.460Z,11.3
2023-05-17T21:46:16.091Z,11.3
2023-05-17T21:52:07.729Z,11.3
2023-05-17T21:58:17.493Z,11.3
2023-05-17T22:03:41.051Z,11.3
2023-05-17T22:09:17.505Z,11.3
2023-05-17T22:15:10.544Z,11.3
2023-05-17T22:26:35.923Z,11.3
2023-05-17T22:32:26.720Z,11.3
2023-05-17T22:38:18.582Z,11.3
2023-05-17T22:43:39.372Z,11.2
2023-05-17T22:49:30.444Z,11.2
2023-05-17T22:55:21.861Z,11.2
2023-05-17T23:00:42.725Z,11.2
2023-05-17T23:06:03.597Z,11.1
2023-05-17T23:11:24.807Z,11.1
2023-05-17T23:17:02.972Z,11.1
2023-05-17T23:22:39.173Z,11.1
2023-05-17T23:28:15.960Z,11.1
2023-05-17T23:33:37.208Z,11.1
2023-05-17T23:39:13.630Z,11.1
2023-05-17T23:44:50.543Z,11.1
2023-05-17T23:50:43.220Z,11
2023-05-17T23:56:19.012Z,11.1
